sensor_id;sensor_type;location;lat;lon;timestamp;P1;durP1;ratioP1;P2;durP2;ratioP2
22191;SDS011;11261;52.456;10.850;2023-04-07T00:02:13;12.73;;;7.63;;
22191;SDS011;11261;52.456;10.850;2023-04-07T00:04:42;11.63;;;7.60;;
22191;SDS011;11261;52.456;10.850;2023-04-07T00:07:10;14.45;;;6.72;;
22191;SDS011;11261;52.456;10.850;2023-04-07T00:09:38;12.25;;;6.90;;
22191;SDS011;11261;52.456;10.850;2023-04-07T00:12:08;11.15;;;6.63;;
22191;SDS011;11261;52.456;10.850;2023-04-07T00:14:37;10.52;;;6.82;;
22191;SDS011;11261;52.456;10.850;2023-04-07T00:17:05;12.27;;;7.03;;
22191;SDS011;11261;52.456;10.850;2023-04-07T00:19:33;12.48;;;7.68;;
22191;SDS011;11261;52.456;10.850;2023-04-07T00:22:02;14.70;;;7.70;;
22191;SDS011;11261;52.456;10.850;2023-04-07T00:24:30;12.23;;;7.65;;
22191;SDS011;11261;52.456;10.850;2023-04-07T00:27:00;12.15;;;7.63;;
22191;SDS011;11261;52.456;10.850;2023-04-07T00:29:29;12.38;;;7.32;;
22191;SDS011;11261;52.456;10.850;2023-04-07T00:31:58;11.65;;;7.90;;
22191;SDS011;11261;52.456;10.850;2023-04-07T00:34:26;10.50;;;7.00;;
22191;SDS011;11261;52.456;10.850;2023-04-07T00:36:54;10.88;;;7.20;;
22191;SDS011;11261;52.456;10.850;2023-04-07T00:39:22;13.15;;;7.93;;
22191;SDS011;11261;52.456;10.850;2023-04-07T00:41:52;16.90;;;9.00;;
22191;SDS011;11261;52.456;10.850;2023-04-07T00:44:21;14.02;;;8.07;;
22191;SDS011;11261;52.456;10.850;2023-04-07T00:46:51;12.57;;;8.02;;
22191;SDS011;11261;52.456;10.850;2023-04-07T00:49:19;12.20;;;8.20;;
22191;SDS011;11261;52.456;10.850;2023-04-07T00:51:48;16.25;;;9.10;;
22191;SDS011;11261;52.456;10.850;2023-04-07T00:54:16;14.60;;;7.75;;
22191;SDS011;11261;52.456;10.850;2023-04-07T00:56:45;17.42;;;9.13;;
22191;SDS011;11261;52.456;10.850;2023-04-07T00:59:13;13.02;;;8.00;;
22191;SDS011;11261;52.456;10.850;2023-04-07T01:01:43;17.30;;;8.45;;
22191;SDS011;11261;52.456;10.850;2023-04-07T01:04:18;16.58;;;9.43;;
22191;SDS011;11261;52.456;10.850;2023-04-07T01:06:56;13.25;;;8.50;;
22191;SDS011;11261;52.456;10.850;2023-04-07T01:09:29;15.48;;;9.10;;
22191;SDS011;11261;52.456;10.850;2023-04-07T01:12:04;13.77;;;8.43;;
22191;SDS011;11261;52.456;10.850;2023-04-07T01:14:39;18.67;;;9.18;;
22191;SDS011;11261;52.456;10.850;2023-04-07T01:17:12;15.93;;;9.00;;
22191;SDS011;11261;52.456;10.850;2023-04-07T01:19:45;17.08;;;8.30;;
22191;SDS011;11261;52.456;10.850;2023-04-07T01:22:20;16.08;;;9.52;;
22191;SDS011;11261;52.456;10.850;2023-04-07T01:25:05;13.27;;;8.02;;
22191;SDS011;11261;52.456;10.850;2023-04-07T01:27:58;12.82;;;8.43;;
22191;SDS011;11261;52.456;10.850;2023-04-07T01:30:40;13.73;;;8.10;;
22191;SDS011;11261;52.456;10.850;2023-04-07T01:33:11;16.20;;;8.95;;
22191;SDS011;11261;52.456;10.850;2023-04-07T01:35:41;16.73;;;8.68;;
22191;SDS011;11261;52.456;10.850;2023-04-07T01:38:10;12.88;;;8.07;;
22191;SDS011;11261;52.456;10.850;2023-04-07T01:40:39;14.23;;;8.60;;
22191;SDS011;11261;52.456;10.850;2023-04-07T01:43:08;13.98;;;8.90;;
22191;SDS011;11261;52.456;10.850;2023-04-07T01:45:37;16.38;;;8.40;;
22191;SDS011;11261;52.456;10.850;2023-04-07T01:48:09;12.60;;;8.02;;
22191;SDS011;11261;52.456;10.850;2023-04-07T01:50:38;11.02;;;7.53;;
22191;SDS011;11261;52.456;10.850;2023-04-07T01:53:07;14.25;;;6.85;;
22191;SDS011;11261;52.456;10.850;2023-04-07T01:55:35;14.02;;;8.20;;
22191;SDS011;11261;52.456;10.850;2023-04-07T01:58:04;15.18;;;7.65;;
22191;SDS011;11261;52.456;10.850;2023-04-07T02:00:32;12.15;;;7.75;;
22191;SDS011;11261;52.456;10.850;2023-04-07T02:03:06;14.00;;;7.22;;
22191;SDS011;11261;52.456;10.850;2023-04-07T02:05:46;14.98;;;8.35;;
22191;SDS011;11261;52.456;10.850;2023-04-07T02:08:16;13.43;;;6.82;;
22191;SDS011;11261;52.456;10.850;2023-04-07T02:10:46;12.88;;;7.85;;
22191;SDS011;11261;52.456;10.850;2023-04-07T02:13:17;12.93;;;7.82;;
22191;SDS011;11261;52.456;10.850;2023-04-07T02:15:47;15.10;;;8.27;;
22191;SDS011;11261;52.456;10.850;2023-04-07T02:18:18;12.70;;;8.60;;
22191;SDS011;11261;52.456;10.850;2023-04-07T02:20:47;12.15;;;8.30;;
22191;SDS011;11261;52.456;10.850;2023-04-07T02:23:18;13.75;;;8.02;;
22191;SDS011;11261;52.456;10.850;2023-04-07T02:25:47;10.38;;;7.30;;
22191;SDS011;11261;52.456;10.850;2023-04-07T02:28:15;12.90;;;8.80;;
22191;SDS011;11261;52.456;10.850;2023-04-07T02:30:43;12.23;;;7.47;;
22191;SDS011;11261;52.456;10.850;2023-04-07T02:33:11;9.77;;;6.63;;
22191;SDS011;11261;52.456;10.850;2023-04-07T02:35:41;15.15;;;8.45;;
22191;SDS011;11261;52.456;10.850;2023-04-07T02:38:09;12.63;;;8.40;;
22191;SDS011;11261;52.456;10.850;2023-04-07T02:40:38;12.27;;;7.90;;
22191;SDS011;11261;52.456;10.850;2023-04-07T02:43:06;19.13;;;9.40;;
22191;SDS011;11261;52.456;10.850;2023-04-07T02:45:34;14.10;;;8.93;;
22191;SDS011;11261;52.456;10.850;2023-04-07T02:48:03;15.02;;;8.05;;
22191;SDS011;11261;52.456;10.850;2023-04-07T02:50:31;13.85;;;8.27;;
22191;SDS011;11261;52.456;10.850;2023-04-07T02:53:01;12.57;;;8.32;;
22191;SDS011;11261;52.456;10.850;2023-04-07T02:55:29;12.53;;;8.50;;
22191;SDS011;11261;52.456;10.850;2023-04-07T02:57:57;12.20;;;7.50;;
22191;SDS011;11261;52.456;10.850;2023-04-07T03:00:25;11.65;;;7.40;;
22191;SDS011;11261;52.456;10.850;2023-04-07T03:02:53;15.87;;;8.80;;
22191;SDS011;11261;52.456;10.850;2023-04-07T03:05:22;11.03;;;7.70;;
22191;SDS011;11261;52.456;10.850;2023-04-07T03:07:50;11.80;;;8.07;;
22191;SDS011;11261;52.456;10.850;2023-04-07T03:10:20;10.73;;;7.73;;
22191;SDS011;11261;52.456;10.850;2023-04-07T03:12:48;15.50;;;9.23;;
22191;SDS011;11261;52.456;10.850;2023-04-07T03:15:16;13.70;;;8.90;;
22191;SDS011;11261;52.456;10.850;2023-04-07T03:17:44;10.40;;;7.43;;
22191;SDS011;11261;52.456;10.850;2023-04-07T03:20:13;13.40;;;8.77;;
22191;SDS011;11261;52.456;10.850;2023-04-07T03:22:42;13.60;;;8.43;;
22191;SDS011;11261;52.456;10.850;2023-04-07T03:25:12;12.43;;;7.77;;
22191;SDS011;11261;52.456;10.850;2023-04-07T03:27:42;9.10;;;6.70;;
22191;SDS011;11261;52.456;10.850;2023-04-07T03:30:10;11.73;;;6.97;;
22191;SDS011;11261;52.456;10.850;2023-04-07T03:32:39;14.13;;;7.73;;
22191;SDS011;11261;52.456;10.850;2023-04-07T03:35:08;10.63;;;7.07;;
22191;SDS011;11261;52.456;10.850;2023-04-07T03:37:36;10.83;;;7.50;;
22191;SDS011;11261;52.456;10.850;2023-04-07T03:40:05;10.40;;;7.07;;
22191;SDS011;11261;52.456;10.850;2023-04-07T03:42:34;11.23;;;7.20;;
22191;SDS011;11261;52.456;10.850;2023-04-07T03:45:04;10.80;;;6.17;;
22191;SDS011;11261;52.456;10.850;2023-04-07T03:47:32;10.27;;;6.13;;
22191;SDS011;11261;52.456;10.850;2023-04-07T03:50:01;10.53;;;6.97;;
22191;SDS011;11261;52.456;10.850;2023-04-07T03:52:29;11.70;;;7.13;;
22191;SDS011;11261;52.456;10.850;2023-04-07T03:54:57;9.60;;;6.20;;
22191;SDS011;11261;52.456;10.850;2023-04-07T03:57:25;10.60;;;6.40;;
22191;SDS011;11261;52.456;10.850;2023-04-07T03:59:53;9.20;;;6.00;;
22191;SDS011;11261;52.456;10.850;2023-04-07T04:02:23;9.20;;;5.90;;
22191;SDS011;11261;52.456;10.850;2023-04-07T04:04:52;7.97;;;5.57;;
22191;SDS011;11261;52.456;10.850;2023-04-07T04:07:20;9.27;;;5.60;;
22191;SDS011;11261;52.456;10.850;2023-04-07T04:09:49;9.07;;;5.70;;
22191;SDS011;11261;52.456;10.850;2023-04-07T04:12:17;12.20;;;6.10;;
22191;SDS011;11261;52.456;10.850;2023-04-07T04:14:45;7.63;;;5.60;;
22191;SDS011;11261;52.456;10.850;2023-04-07T04:17:14;9.23;;;6.10;;
22191;SDS011;11261;52.456;10.850;2023-04-07T04:19:43;10.47;;;6.50;;
22191;SDS011;11261;52.456;10.850;2023-04-07T04:22:11;12.07;;;7.00;;
22191;SDS011;11261;52.456;10.850;2023-04-07T04:24:40;9.43;;;6.17;;
22191;SDS011;11261;52.456;10.850;2023-04-07T04:27:09;9.50;;;6.77;;
22191;SDS011;11261;52.456;10.850;2023-04-07T04:29:37;12.87;;;7.13;;
22191;SDS011;11261;52.456;10.850;2023-04-07T04:32:06;8.23;;;5.53;;
22191;SDS011;11261;52.456;10.850;2023-04-07T04:34:34;7.97;;;5.73;;
22191;SDS011;11261;52.456;10.850;2023-04-07T04:37:04;9.33;;;6.60;;
22191;SDS011;11261;52.456;10.850;2023-04-07T04:39:32;9.17;;;6.17;;
22191;SDS011;11261;52.456;10.850;2023-04-07T04:42:00;7.13;;;5.30;;
22191;SDS011;11261;52.456;10.850;2023-04-07T04:44:29;8.87;;;5.50;;
22191;SDS011;11261;52.456;10.850;2023-04-07T04:46:57;9.60;;;5.70;;
22191;SDS011;11261;52.456;10.850;2023-04-07T04:49:26;8.67;;;5.57;;
22191;SDS011;11261;52.456;10.850;2023-04-07T04:51:54;11.07;;;5.90;;
22191;SDS011;11261;52.456;10.850;2023-04-07T04:54:23;9.23;;;6.07;;
22191;SDS011;11261;52.456;10.850;2023-04-07T04:56:51;10.50;;;6.87;;
22191;SDS011;11261;52.456;10.850;2023-04-07T04:59:22;11.53;;;6.13;;
22191;SDS011;11261;52.456;10.850;2023-04-07T05:01:52;12.20;;;6.30;;
22191;SDS011;11261;52.456;10.850;2023-04-07T05:04:20;8.37;;;5.83;;
22191;SDS011;11261;52.456;10.850;2023-04-07T05:06:49;9.47;;;6.47;;
22191;SDS011;11261;52.456;10.850;2023-04-07T05:09:17;9.13;;;6.30;;
22191;SDS011;11261;52.456;10.850;2023-04-07T05:11:47;10.73;;;7.43;;
22191;SDS011;11261;52.456;10.850;2023-04-07T05:14:15;11.00;;;6.47;;
22191;SDS011;11261;52.456;10.850;2023-04-07T05:16:43;9.33;;;5.67;;
22191;SDS011;11261;52.456;10.850;2023-04-07T05:19:11;8.47;;;5.57;;
22191;SDS011;11261;52.456;10.850;2023-04-07T05:21:39;8.17;;;5.93;;
22191;SDS011;11261;52.456;10.850;2023-04-07T05:24:07;12.13;;;5.80;;
22191;SDS011;11261;52.456;10.850;2023-04-07T05:26:36;10.40;;;7.50;;
22191;SDS011;11261;52.456;10.850;2023-04-07T05:29:05;9.53;;;6.30;;
22191;SDS011;11261;52.456;10.850;2023-04-07T05:31:33;8.13;;;5.43;;
22191;SDS011;11261;52.456;10.850;2023-04-07T05:34:02;10.03;;;7.10;;
22191;SDS011;11261;52.456;10.850;2023-04-07T05:36:31;9.47;;;6.30;;
22191;SDS011;11261;52.456;10.850;2023-04-07T05:38:59;9.67;;;6.20;;
22191;SDS011;11261;52.456;10.850;2023-04-07T05:41:28;9.40;;;5.50;;
22191;SDS011;11261;52.456;10.850;2023-04-07T05:43:56;10.87;;;6.00;;
22191;SDS011;11261;52.456;10.850;2023-04-07T05:46:26;11.93;;;5.93;;
22191;SDS011;11261;52.456;10.850;2023-04-07T05:48:54;7.17;;;4.97;;
22191;SDS011;11261;52.456;10.850;2023-04-07T05:51:24;8.90;;;5.77;;
22191;SDS011;11261;52.456;10.850;2023-04-07T05:53:53;9.43;;;5.63;;
22191;SDS011;11261;52.456;10.850;2023-04-07T05:56:21;10.60;;;5.80;;
22191;SDS011;11261;52.456;10.850;2023-04-07T05:58:49;8.07;;;5.93;;
22191;SDS011;11261;52.456;10.850;2023-04-07T06:01:17;11.43;;;5.90;;
22191;SDS011;11261;52.456;10.850;2023-04-07T06:03:47;10.25;;;5.93;;
22191;SDS011;11261;52.456;10.850;2023-04-07T06:06:16;10.25;;;6.43;;
22191;SDS011;11261;52.456;10.850;2023-04-07T06:08:44;8.02;;;5.70;;
22191;SDS011;11261;52.456;10.850;2023-04-07T06:11:12;8.32;;;5.30;;
22191;SDS011;11261;52.456;10.850;2023-04-07T06:13:41;9.27;;;5.45;;
22191;SDS011;11261;52.456;10.850;2023-04-07T06:16:09;9.68;;;5.45;;
22191;SDS011;11261;52.456;10.850;2023-04-07T06:18:37;9.27;;;5.63;;
22191;SDS011;11261;52.456;10.850;2023-04-07T06:21:07;8.50;;;5.97;;
22191;SDS011;11261;52.456;10.850;2023-04-07T06:23:35;8.95;;;5.32;;
22191;SDS011;11261;52.456;10.850;2023-04-07T06:26:03;7.15;;;5.20;;
22191;SDS011;11261;52.456;10.850;2023-04-07T06:28:32;11.98;;;6.43;;
22191;SDS011;11261;52.456;10.850;2023-04-07T06:31:00;10.05;;;5.07;;
22191;SDS011;11261;52.456;10.850;2023-04-07T06:33:28;8.00;;;5.55;;
22191;SDS011;11261;52.456;10.850;2023-04-07T06:35:57;9.43;;;5.22;;
22191;SDS011;11261;52.456;10.850;2023-04-07T06:38:26;9.25;;;5.50;;
22191;SDS011;11261;52.456;10.850;2023-04-07T06:40:54;9.10;;;4.90;;
22191;SDS011;11261;52.456;10.850;2023-04-07T06:43:23;10.60;;;5.65;;
22191;SDS011;11261;52.456;10.850;2023-04-07T06:45:51;7.22;;;5.55;;
22191;SDS011;11261;52.456;10.850;2023-04-07T06:48:20;8.40;;;5.55;;
22191;SDS011;11261;52.456;10.850;2023-04-07T06:50:49;6.85;;;5.03;;
22191;SDS011;11261;52.456;10.850;2023-04-07T06:53:17;7.63;;;5.50;;
22191;SDS011;11261;52.456;10.850;2023-04-07T06:55:47;7.70;;;4.53;;
22191;SDS011;11261;52.456;10.850;2023-04-07T06:58:15;11.50;;;5.18;;
22191;SDS011;11261;52.456;10.850;2023-04-07T07:00:43;7.38;;;4.78;;
22191;SDS011;11261;52.456;10.850;2023-04-07T07:03:12;6.90;;;5.00;;
22191;SDS011;11261;52.456;10.850;2023-04-07T07:05:41;9.32;;;5.00;;
22191;SDS011;11261;52.456;10.850;2023-04-07T07:08:09;7.80;;;5.57;;
22191;SDS011;11261;52.456;10.850;2023-04-07T07:10:37;7.85;;;5.28;;
22191;SDS011;11261;52.456;10.850;2023-04-07T07:13:06;7.65;;;4.80;;
22191;SDS011;11261;52.456;10.850;2023-04-07T07:15:35;7.85;;;4.90;;
22191;SDS011;11261;52.456;10.850;2023-04-07T07:18:03;7.47;;;4.63;;
22191;SDS011;11261;52.456;10.850;2023-04-07T07:20:32;9.57;;;5.28;;
22191;SDS011;11261;52.456;10.850;2023-04-07T07:23:00;8.27;;;5.22;;
22191;SDS011;11261;52.456;10.850;2023-04-07T07:25:28;8.07;;;5.15;;
22191;SDS011;11261;52.456;10.850;2023-04-07T07:27:56;9.38;;;5.07;;
22191;SDS011;11261;52.456;10.850;2023-04-07T07:30:26;7.72;;;5.40;;
22191;SDS011;11261;52.456;10.850;2023-04-07T07:32:54;9.73;;;5.75;;
22191;SDS011;11261;52.456;10.850;2023-04-07T07:35:22;8.88;;;5.30;;
22191;SDS011;11261;52.456;10.850;2023-04-07T07:37:51;8.48;;;5.13;;
22191;SDS011;11261;52.456;10.850;2023-04-07T07:40:19;9.05;;;5.20;;
22191;SDS011;11261;52.456;10.850;2023-04-07T07:42:47;8.60;;;5.43;;
22191;SDS011;11261;52.456;10.850;2023-04-07T07:45:16;8.38;;;5.30;;
22191;SDS011;11261;52.456;10.850;2023-04-07T07:47:46;8.05;;;5.30;;
22191;SDS011;11261;52.456;10.850;2023-04-07T07:50:14;9.00;;;5.25;;
22191;SDS011;11261;52.456;10.850;2023-04-07T07:52:42;7.20;;;4.57;;
22191;SDS011;11261;52.456;10.850;2023-04-07T07:55:11;8.40;;;5.30;;
22191;SDS011;11261;52.456;10.850;2023-04-07T07:57:40;8.43;;;5.07;;
22191;SDS011;11261;52.456;10.850;2023-04-07T08:00:08;7.65;;;4.93;;
22191;SDS011;11261;52.456;10.850;2023-04-07T08:02:38;7.85;;;5.53;;
22191;SDS011;11261;52.456;10.850;2023-04-07T08:05:08;7.60;;;4.82;;
22191;SDS011;11261;52.456;10.850;2023-04-07T08:07:36;7.90;;;4.97;;
22191;SDS011;11261;52.456;10.850;2023-04-07T08:10:05;10.20;;;5.10;;
22191;SDS011;11261;52.456;10.850;2023-04-07T08:12:33;14.23;;;5.55;;
22191;SDS011;11261;52.456;10.850;2023-04-07T08:15:02;7.22;;;4.47;;
22191;SDS011;11261;52.456;10.850;2023-04-07T08:17:30;7.97;;;5.38;;
22191;SDS011;11261;52.456;10.850;2023-04-07T08:19:59;8.48;;;4.88;;
22191;SDS011;11261;52.456;10.850;2023-04-07T08:22:29;8.70;;;4.47;;
22191;SDS011;11261;52.456;10.850;2023-04-07T08:24:57;5.82;;;4.30;;
22191;SDS011;11261;52.456;10.850;2023-04-07T08:27:25;9.10;;;4.57;;
22191;SDS011;11261;52.456;10.850;2023-04-07T08:29:57;8.07;;;4.95;;
22191;SDS011;11261;52.456;10.850;2023-04-07T08:32:32;7.70;;;3.97;;
22191;SDS011;11261;52.456;10.850;2023-04-07T08:35:02;6.90;;;3.97;;
22191;SDS011;11261;52.456;10.850;2023-04-07T08:37:32;9.45;;;5.07;;
22191;SDS011;11261;52.456;10.850;2023-04-07T08:40:02;8.18;;;4.45;;
22191;SDS011;11261;52.456;10.850;2023-04-07T08:42:31;7.90;;;4.55;;
22191;SDS011;11261;52.456;10.850;2023-04-07T08:45:01;6.40;;;4.38;;
22191;SDS011;11261;52.456;10.850;2023-04-07T08:47:32;7.28;;;4.68;;
22191;SDS011;11261;52.456;10.850;2023-04-07T08:50:02;8.02;;;4.03;;
22191;SDS011;11261;52.456;10.850;2023-04-07T08:52:34;7.68;;;4.63;;
22191;SDS011;11261;52.456;10.850;2023-04-07T08:55:08;7.43;;;4.28;;
22191;SDS011;11261;52.456;10.850;2023-04-07T08:57:37;5.57;;;4.13;;
22191;SDS011;11261;52.456;10.850;2023-04-07T09:00:06;6.90;;;4.78;;
22191;SDS011;11261;52.456;10.850;2023-04-07T09:02:36;6.30;;;4.47;;
22191;SDS011;11261;52.456;10.850;2023-04-07T09:05:06;6.25;;;3.83;;
22191;SDS011;11261;52.456;10.850;2023-04-07T09:07:37;6.13;;;3.63;;
22191;SDS011;11261;52.456;10.850;2023-04-07T09:10:08;6.53;;;3.78;;
22191;SDS011;11261;52.456;10.850;2023-04-07T09:12:37;5.53;;;3.58;;
22191;SDS011;11261;52.456;10.850;2023-04-07T09:15:06;6.47;;;4.35;;
22191;SDS011;11261;52.456;10.850;2023-04-07T09:17:35;7.93;;;3.78;;
22191;SDS011;11261;52.456;10.850;2023-04-07T09:20:04;7.03;;;4.40;;
22191;SDS011;11261;52.456;10.850;2023-04-07T09:22:37;5.72;;;4.10;;
22191;SDS011;11261;52.456;10.850;2023-04-07T09:25:14;7.05;;;4.20;;
22191;SDS011;11261;52.456;10.850;2023-04-07T09:27:54;6.55;;;3.50;;
22191;SDS011;11261;52.456;10.850;2023-04-07T09:30:25;7.10;;;3.60;;
22191;SDS011;11261;52.456;10.850;2023-04-07T09:32:55;8.50;;;4.38;;
22191;SDS011;11261;52.456;10.850;2023-04-07T09:35:24;6.60;;;3.47;;
22191;SDS011;11261;52.456;10.850;2023-04-07T09:38:02;6.72;;;3.90;;
22191;SDS011;11261;52.456;10.850;2023-04-07T09:40:31;5.78;;;3.30;;
22191;SDS011;11261;52.456;10.850;2023-04-07T09:43:00;5.68;;;3.20;;
22191;SDS011;11261;52.456;10.850;2023-04-07T09:45:30;6.32;;;3.05;;
22191;SDS011;11261;52.456;10.850;2023-04-07T09:48:05;4.97;;;3.85;;
22191;SDS011;11261;52.456;10.850;2023-04-07T09:50:35;4.78;;;3.38;;
22191;SDS011;11261;52.456;10.850;2023-04-07T09:53:08;4.18;;;3.08;;
22191;SDS011;11261;52.456;10.850;2023-04-07T09:55:37;4.80;;;3.42;;
22191;SDS011;11261;52.456;10.850;2023-04-07T09:58:07;6.00;;;3.42;;
22191;SDS011;11261;52.456;10.850;2023-04-07T10:00:36;5.82;;;3.25;;
22191;SDS011;11261;52.456;10.850;2023-04-07T10:03:04;5.88;;;3.40;;
22191;SDS011;11261;52.456;10.850;2023-04-07T10:05:34;4.90;;;3.30;;
22191;SDS011;11261;52.456;10.850;2023-04-07T10:08:02;6.53;;;3.28;;
22191;SDS011;11261;52.456;10.850;2023-04-07T10:10:34;6.18;;;3.75;;
22191;SDS011;11261;52.456;10.850;2023-04-07T10:13:03;6.13;;;3.70;;
22191;SDS011;11261;52.456;10.850;2023-04-07T10:15:31;5.45;;;3.05;;
22191;SDS011;11261;52.456;10.850;2023-04-07T10:18:00;6.00;;;3.20;;
22191;SDS011;11261;52.456;10.850;2023-04-07T10:20:34;3.63;;;2.53;;
22191;SDS011;11261;52.456;10.850;2023-04-07T10:23:07;5.60;;;3.28;;
22191;SDS011;11261;52.456;10.850;2023-04-07T10:25:44;5.60;;;3.00;;
22191;SDS011;11261;52.456;10.850;2023-04-07T10:28:14;7.47;;;3.97;;
22191;SDS011;11261;52.456;10.850;2023-04-07T10:30:45;5.93;;;3.22;;
22191;SDS011;11261;52.456;10.850;2023-04-07T10:33:15;5.28;;;3.08;;
22191;SDS011;11261;52.456;10.850;2023-04-07T10:36:02;3.80;;;2.85;;
22191;SDS011;11261;52.456;10.850;2023-04-07T10:38:32;6.82;;;3.10;;
22191;SDS011;11261;52.456;10.850;2023-04-07T10:41:07;4.65;;;3.42;;
22191;SDS011;11261;52.456;10.850;2023-04-07T10:44:00;5.63;;;3.60;;
22191;SDS011;11261;52.456;10.850;2023-04-07T10:49:29;4.72;;;3.20;;
22191;SDS011;11261;52.456;10.850;2023-04-07T11:03:53;4.78;;;3.10;;
22191;SDS011;11261;52.456;10.850;2023-04-07T11:06:23;4.63;;;3.38;;
22191;SDS011;11261;52.456;10.850;2023-04-07T11:08:52;5.90;;;3.42;;
22191;SDS011;11261;52.456;10.850;2023-04-07T11:11:39;5.80;;;3.85;;
22191;SDS011;11261;52.456;10.850;2023-04-07T11:14:09;6.53;;;3.55;;
22191;SDS011;11261;52.456;10.850;2023-04-07T11:16:41;6.90;;;2.97;;
22191;SDS011;11261;52.456;10.850;2023-04-07T11:19:11;6.30;;;3.65;;
22191;SDS011;11261;52.456;10.850;2023-04-07T11:21:39;5.85;;;3.75;;
22191;SDS011;11261;52.456;10.850;2023-04-07T11:24:07;5.90;;;3.35;;
22191;SDS011;11261;52.456;10.850;2023-04-07T11:26:36;5.18;;;3.15;;
22191;SDS011;11261;52.456;10.850;2023-04-07T11:29:06;4.47;;;2.55;;
22191;SDS011;11261;52.456;10.850;2023-04-07T11:31:35;5.30;;;3.80;;
22191;SDS011;11261;52.456;10.850;2023-04-07T11:34:06;5.75;;;3.38;;
22191;SDS011;11261;52.456;10.850;2023-04-07T11:36:36;7.55;;;2.88;;
22191;SDS011;11261;52.456;10.850;2023-04-07T11:39:16;6.55;;;3.70;;
22191;SDS011;11261;52.456;10.850;2023-04-07T11:41:46;5.85;;;3.80;;
22191;SDS011;11261;52.456;10.850;2023-04-07T11:44:15;5.53;;;2.97;;
22191;SDS011;11261;52.456;10.850;2023-04-07T11:46:55;5.95;;;3.03;;
22191;SDS011;11261;52.456;10.850;2023-04-07T11:49:25;4.45;;;3.13;;
22191;SDS011;11261;52.456;10.850;2023-04-07T11:51:58;4.22;;;3.33;;
22191;SDS011;11261;52.456;10.850;2023-04-07T11:54:37;4.97;;;2.97;;
22191;SDS011;11261;52.456;10.850;2023-04-07T11:57:06;4.22;;;2.83;;
22191;SDS011;11261;52.456;10.850;2023-04-07T11:59:38;8.68;;;3.80;;
22191;SDS011;11261;52.456;10.850;2023-04-07T12:02:08;8.75;;;3.38;;
22191;SDS011;11261;52.456;10.850;2023-04-07T12:04:36;4.55;;;2.80;;
22191;SDS011;11261;52.456;10.850;2023-04-07T12:07:06;5.10;;;2.75;;
22191;SDS011;11261;52.456;10.850;2023-04-07T12:09:36;4.60;;;2.72;;
22191;SDS011;11261;52.456;10.850;2023-04-07T12:12:06;4.78;;;2.88;;
22191;SDS011;11261;52.456;10.850;2023-04-07T12:14:36;5.38;;;2.70;;
22191;SDS011;11261;52.456;10.850;2023-04-07T12:17:04;5.55;;;2.95;;
22191;SDS011;11261;52.456;10.850;2023-04-07T12:19:36;6.57;;;3.08;;
22191;SDS011;11261;52.456;10.850;2023-04-07T12:22:05;4.22;;;2.63;;
22191;SDS011;11261;52.456;10.850;2023-04-07T12:24:33;6.18;;;2.58;;
22191;SDS011;11261;52.456;10.850;2023-04-07T12:27:01;5.95;;;2.80;;
22191;SDS011;11261;52.456;10.850;2023-04-07T12:29:30;6.00;;;2.78;;
22191;SDS011;11261;52.456;10.850;2023-04-07T12:31:58;4.82;;;3.30;;
22191;SDS011;11261;52.456;10.850;2023-04-07T12:34:27;3.70;;;2.92;;
22191;SDS011;11261;52.456;10.850;2023-04-07T12:36:57;4.00;;;2.95;;
22191;SDS011;11261;52.456;10.850;2023-04-07T12:39:25;4.85;;;2.47;;
22191;SDS011;11261;52.456;10.850;2023-04-07T12:41:53;5.32;;;3.28;;
22191;SDS011;11261;52.456;10.850;2023-04-07T12:44:23;5.45;;;3.47;;
22191;SDS011;11261;52.456;10.850;2023-04-07T12:46:52;9.55;;;3.47;;
22191;SDS011;11261;52.456;10.850;2023-04-07T12:49:20;7.13;;;3.72;;
22191;SDS011;11261;52.456;10.850;2023-04-07T12:51:48;5.95;;;3.58;;
22191;SDS011;11261;52.456;10.850;2023-04-07T12:54:19;4.72;;;3.70;;
22191;SDS011;11261;52.456;10.850;2023-04-07T12:56:47;6.25;;;3.65;;
22191;SDS011;11261;52.456;10.850;2023-04-07T12:59:16;4.25;;;2.65;;
22191;SDS011;11261;52.456;10.850;2023-04-07T13:01:44;5.18;;;2.92;;
22191;SDS011;11261;52.456;10.850;2023-04-07T13:04:16;5.72;;;3.80;;
22191;SDS011;11261;52.456;10.850;2023-04-07T13:06:44;5.68;;;3.50;;
22191;SDS011;11261;52.456;10.850;2023-04-07T13:09:13;3.60;;;2.63;;
22191;SDS011;11261;52.456;10.850;2023-04-07T13:11:43;4.35;;;3.08;;
22191;SDS011;11261;52.456;10.850;2023-04-07T13:14:11;6.32;;;3.20;;
22191;SDS011;11261;52.456;10.850;2023-04-07T13:16:39;5.07;;;3.28;;
22191;SDS011;11261;52.456;10.850;2023-04-07T13:19:08;4.65;;;3.25;;
22191;SDS011;11261;52.456;10.850;2023-04-07T13:21:36;5.60;;;3.30;;
22191;SDS011;11261;52.456;10.850;2023-04-07T13:24:07;5.63;;;2.60;;
22191;SDS011;11261;52.456;10.850;2023-04-07T13:26:35;4.55;;;3.28;;
22191;SDS011;11261;52.456;10.850;2023-04-07T13:29:05;5.38;;;3.22;;
22191;SDS011;11261;52.456;10.850;2023-04-07T13:31:33;4.82;;;3.22;;
22191;SDS011;11261;52.456;10.850;2023-04-07T13:34:01;3.83;;;2.63;;
22191;SDS011;11261;52.456;10.850;2023-04-07T13:36:29;7.03;;;3.33;;
22191;SDS011;11261;52.456;10.850;2023-04-07T13:38:58;5.30;;;3.15;;
22191;SDS011;11261;52.456;10.850;2023-04-07T13:41:27;4.32;;;2.80;;
22191;SDS011;11261;52.456;10.850;2023-04-07T13:43:55;4.15;;;3.15;;
22191;SDS011;11261;52.456;10.850;2023-04-07T13:46:26;5.72;;;3.28;;
22191;SDS011;11261;52.456;10.850;2023-04-07T13:48:55;5.13;;;3.15;;
22191;SDS011;11261;52.456;10.850;2023-04-07T13:51:23;7.88;;;3.05;;
22191;SDS011;11261;52.456;10.850;2023-04-07T13:53:51;6.50;;;3.38;;
22191;SDS011;11261;52.456;10.850;2023-04-07T13:56:19;4.22;;;2.80;;
22191;SDS011;11261;52.456;10.850;2023-04-07T13:58:47;4.22;;;2.70;;
22191;SDS011;11261;52.456;10.850;2023-04-07T14:01:16;5.85;;;3.13;;
22191;SDS011;11261;52.456;10.850;2023-04-07T14:03:46;4.70;;;3.00;;
22191;SDS011;11261;52.456;10.850;2023-04-07T14:06:15;7.13;;;2.97;;
22191;SDS011;11261;52.456;10.850;2023-04-07T14:08:43;3.53;;;2.33;;
22191;SDS011;11261;52.456;10.850;2023-04-07T14:11:11;5.75;;;3.20;;
22191;SDS011;11261;52.456;10.850;2023-04-07T14:13:43;5.20;;;3.17;;
22191;SDS011;11261;52.456;10.850;2023-04-07T14:16:12;4.78;;;3.10;;
22191;SDS011;11261;52.456;10.850;2023-04-07T14:18:40;5.22;;;2.88;;
22191;SDS011;11261;52.456;10.850;2023-04-07T14:21:10;3.42;;;2.58;;
22191;SDS011;11261;52.456;10.850;2023-04-07T14:23:38;5.22;;;3.00;;
22191;SDS011;11261;52.456;10.850;2023-04-07T14:26:08;7.40;;;3.13;;
22191;SDS011;11261;52.456;10.850;2023-04-07T14:28:37;6.32;;;3.20;;
22191;SDS011;11261;52.456;10.850;2023-04-07T14:31:10;4.03;;;2.65;;
22191;SDS011;11261;52.456;10.850;2023-04-07T14:33:39;4.65;;;2.88;;
22191;SDS011;11261;52.456;10.850;2023-04-07T14:36:09;4.32;;;3.28;;
22191;SDS011;11261;52.456;10.850;2023-04-07T14:38:37;4.90;;;2.75;;
22191;SDS011;11261;52.456;10.850;2023-04-07T14:41:06;4.63;;;2.85;;
22191;SDS011;11261;52.456;10.850;2023-04-07T14:43:35;6.65;;;3.33;;
22191;SDS011;11261;52.456;10.850;2023-04-07T14:46:04;5.10;;;3.15;;
22191;SDS011;11261;52.456;10.850;2023-04-07T14:48:33;5.88;;;3.97;;
22191;SDS011;11261;52.456;10.850;2023-04-07T14:51:01;3.83;;;2.80;;
22191;SDS011;11261;52.456;10.850;2023-04-07T14:53:36;3.47;;;2.60;;
22191;SDS011;11261;52.456;10.850;2023-04-07T14:56:05;3.75;;;2.10;;
22191;SDS011;11261;52.456;10.850;2023-04-07T14:58:33;3.58;;;2.08;;
22191;SDS011;11261;52.456;10.850;2023-04-07T15:01:04;2.38;;;1.83;;